sensor_id;sensor_type;location;lat;lon;timestamp;pressure;altitude;pressure_sealevel;temperature;humidity
29383;BME280;16365;51.598;7.668;2023-03-04T00:02:13;101824.06;;;11.03;42.66
29383;BME280;16365;51.598;7.668;2023-03-04T00:04:40;101813.47;;;11.05;43.00
29383;BME280;16365;51.598;7.668;2023-03-04T00:07:06;101817.59;;;11.07;43.02
29383;BME280;16365;51.598;7.668;2023-03-04T00:09:33;101811.72;;;11.09;43.03
29383;BME280;16365;51.598;7.668;2023-03-04T00:12:00;101816.69;;;11.12;42.54
29383;BME280;16365;51.598;7.668;2023-03-04T00:14:26;101816.69;;;11.12;42.66
29383;BME280;16365;51.598;7.668;2023-03-04T00:16:55;101812.47;;;11.15;42.38
29383;BME280;16365;51.598;7.668;2023-03-04T00:19:22;101809.38;;;11.16;42.61
29383;BME280;16365;51.598;7.668;2023-03-04T00:21:48;101809.91;;;11.18;42.28
29383;BME280;16365;51.598;7.668;2023-03-04T00:24:15;101811.53;;;11.19;42.42
29383;BME280;16365;51.598;7.668;2023-03-04T00:26:42;101812.38;;;11.20;42.58
29383;BME280;16365;51.598;7.668;2023-03-04T00:29:09;101815.69;;;11.22;42.19
29383;BME280;16365;51.598;7.668;2023-03-04T00:31:35;101810.94;;;11.22;42.79
29383;BME280;16365;51.598;7.668;2023-03-04T00:34:01;101814.53;;;11.23;42.32
29383;BME280;16365;51.598;7.668;2023-03-04T00:36:28;101813.41;;;11.24;42.40
29383;BME280;16365;51.598;7.668;2023-03-04T00:38:54;101808.69;;;11.24;42.31
29383;BME280;16365;51.598;7.668;2023-03-04T00:41:21;101804.75;;;11.25;42.72
29383;BME280;16365;51.598;7.668;2023-03-04T00:43:47;101805.91;;;11.24;42.27
29383;BME280;16365;51.598;7.668;2023-03-04T00:46:14;101804.75;;;11.25;42.35
29383;BME280;16365;51.598;7.668;2023-03-04T00:48:40;101797.25;;;11.26;42.36
29383;BME280;16365;51.598;7.668;2023-03-04T00:51:07;101801.69;;;11.27;42.38
29383;BME280;16365;51.598;7.668;2023-03-04T00:53:34;101795.28;;;11.26;42.23
29383;BME280;16365;51.598;7.668;2023-03-04T00:56:00;101794.19;;;11.27;42.60
29383;BME280;16365;51.598;7.668;2023-03-04T00:58:27;101799.75;;;11.27;42.16
29383;BME280;16365;51.598;7.668;2023-03-04T01:00:53;101793.38;;;11.27;42.29
29383;BME280;16365;51.598;7.668;2023-03-04T01:03:20;101795.00;;;11.28;42.08
29383;BME280;16365;51.598;7.668;2023-03-04T01:05:46;101789.47;;;11.28;42.23
29383;BME280;16365;51.598;7.668;2023-03-04T01:08:13;101794.19;;;11.27;42.59
29383;BME280;16365;51.598;7.668;2023-03-04T01:10:40;101795.84;;;11.28;42.47
29383;BME280;16365;51.598;7.668;2023-03-04T01:13:07;101792.75;;;11.30;42.51
29383;BME280;16365;51.598;7.668;2023-03-04T01:15:34;101792.75;;;11.30;42.23
29383;BME280;16365;51.598;7.668;2023-03-04T01:18:00;101793.28;;;11.32;42.15
29383;BME280;16365;51.598;7.668;2023-03-04T01:20:27;101784.94;;;11.32;42.28
29383;BME280;16365;51.598;7.668;2023-03-04T01:22:53;101786.28;;;11.35;42.25
29383;BME280;16365;51.598;7.668;2023-03-04T01:25:20;101779.59;;;11.36;41.82
29383;BME280;16365;51.598;7.668;2023-03-04T01:27:46;101776.81;;;11.36;42.07
29383;BME280;16365;51.598;7.668;2023-03-04T01:30:13;101778.47;;;11.37;42.12
29383;BME280;16365;51.598;7.668;2023-03-04T01:32:39;101779.28;;;11.37;42.04
29383;BME280;16365;51.598;7.668;2023-03-04T01:35:06;101773.75;;;11.37;42.12
29383;BME280;16365;51.598;7.668;2023-03-04T01:37:33;101773.44;;;11.39;42.12
29383;BME280;16365;51.598;7.668;2023-03-04T01:40:00;101775.06;;;11.40;42.19
29383;BME280;16365;51.598;7.668;2023-03-04T01:42:29;101770.34;;;11.40;42.23
29383;BME280;16365;51.598;7.668;2023-03-04T01:44:57;101771.16;;;11.41;42.25
29383;BME280;16365;51.598;7.668;2023-03-04T01:47:29;101762.53;;;11.42;42.41
29383;BME280;16365;51.598;7.668;2023-03-04T01:49:57;101765.00;;;11.44;41.87
29383;BME280;16365;51.598;7.668;2023-03-04T01:52:26;101764.69;;;11.45;42.36
29383;BME280;16365;51.598;7.668;2023-03-04T01:54:53;101769.13;;;11.46;42.08
29383;BME280;16365;51.598;7.668;2023-03-04T01:57:25;101765.50;;;11.46;42.16
29383;BME280;16365;51.598;7.668;2023-03-04T02:00:21;101759.94;;;11.46;41.54
29383;BME280;16365;51.598;7.668;2023-03-04T02:02:51;101763.75;;;11.50;41.97
29383;BME280;16365;51.598;7.668;2023-03-04T02:05:18;101762.13;;;11.49;42.24
29383;BME280;16365;51.598;7.668;2023-03-04T02:07:45;101753.78;;;11.49;42.07
29383;BME280;16365;51.598;7.668;2023-03-04T02:10:12;101765.72;;;11.49;42.04
29383;BME280;16365;51.598;7.668;2023-03-04T02:12:39;101755.75;;;11.48;41.79
29383;BME280;16365;51.598;7.668;2023-03-04T02:15:06;101758.50;;;11.48;41.90
29383;BME280;16365;51.598;7.668;2023-03-04T02:17:33;101754.91;;;11.48;42.07
29383;BME280;16365;51.598;7.668;2023-03-04T02:20:34;101756.34;;;11.45;41.91
29383;BME280;16365;51.598;7.668;2023-03-04T02:23:06;101744.63;;;11.48;41.88
29383;BME280;16365;51.598;7.668;2023-03-04T02:26:02;101746.91;;;11.46;42.18
29383;BME280;16365;51.598;7.668;2023-03-04T02:28:28;101743.50;;;11.49;41.74
29383;BME280;16365;51.598;7.668;2023-03-04T02:30:55;101745.13;;;11.50;42.41
29383;BME280;16365;51.598;7.668;2023-03-04T02:33:21;101748.44;;;11.52;41.88
29383;BME280;16365;51.598;7.668;2023-03-04T02:35:48;101743.22;;;11.51;41.83
29383;BME280;16365;51.598;7.668;2023-03-04T02:38:14;101736.50;;;11.52;42.12
29383;BME280;16365;51.598;7.668;2023-03-04T02:40:43;101740.09;;;11.52;42.26
29383;BME280;16365;51.598;7.668;2023-03-04T02:43:11;101731.47;;;11.54;42.04
29383;BME280;16365;51.598;7.668;2023-03-04T02:45:46;101739.28;;;11.52;41.76
29383;BME280;16365;51.598;7.668;2023-03-04T02:48:18;101731.47;;;11.54;42.21
29383;BME280;16365;51.598;7.668;2023-03-04T02:50:50;101728.69;;;11.54;41.74
29383;BME280;16365;51.598;7.668;2023-03-04T02:53:18;101732.00;;;11.56;41.94
29383;BME280;16365;51.598;7.668;2023-03-04T02:55:46;101727.25;;;11.56;42.09
29383;BME280;16365;51.598;7.668;2023-03-04T02:58:13;101724.47;;;11.56;41.76
29383;BME280;16365;51.598;7.668;2023-03-04T03:00:41;101722.50;;;11.57;41.51
29383;BME280;16365;51.598;7.668;2023-03-04T03:03:08;101718.09;;;11.56;42.05
29383;BME280;16365;51.598;7.668;2023-03-04T03:05:35;101723.66;;;11.56;41.55
29383;BME280;16365;51.598;7.668;2023-03-04T03:08:02;101717.25;;;11.55;41.83
29383;BME280;16365;51.598;7.668;2023-03-04T03:10:29;101716.44;;;11.55;41.87
29383;BME280;16365;51.598;7.668;2023-03-04T03:12:55;101720.34;;;11.54;41.61
29383;BME280;16365;51.598;7.668;2023-03-04T03:15:22;101719.53;;;11.53;41.94
29383;BME280;16365;51.598;7.668;2023-03-04T03:17:49;101713.16;;;11.53;41.92
29383;BME280;16365;51.598;7.668;2023-03-04T03:20:16;101707.28;;;11.54;41.87
29383;BME280;16365;51.598;7.668;2023-03-04T03:22:42;101702.53;;;11.55;42.18
29383;BME280;16365;51.598;7.668;2023-03-04T03:25:11;101710.06;;;11.54;42.23
29383;BME280;16365;51.598;7.668;2023-03-04T03:27:38;101706.16;;;11.55;42.35
29383;BME280;16365;51.598;7.668;2023-03-04T03:30:05;101704.50;;;11.54;41.93
29383;BME280;16365;51.598;7.668;2023-03-04T03:32:32;101702.53;;;11.55;42.04
29383;BME280;16365;51.598;7.668;2023-03-04T03:34:59;101705.31;;;11.55;42.24
29383;BME280;16365;51.598;7.668;2023-03-04T03:37:26;101699.78;;;11.55;41.66
29383;BME280;16365;51.598;7.668;2023-03-04T03:39:52;101703.38;;;11.55;42.15
29383;BME280;16365;51.598;7.668;2023-03-04T03:42:19;101696.16;;;11.54;41.50
29383;BME280;16365;51.598;7.668;2023-03-04T03:44:45;101695.34;;;11.54;41.86
29383;BME280;16365;51.598;7.668;2023-03-04T03:47:12;101699.78;;;11.55;41.65
29383;BME280;16365;51.598;7.668;2023-03-04T03:49:38;101695.34;;;11.54;41.89
29383;BME280;16365;51.598;7.668;2023-03-04T03:52:05;101694.53;;;11.53;42.22
29383;BME280;16365;51.598;7.668;2023-03-04T03:54:33;101697.81;;;11.55;42.35
29383;BME280;16365;51.598;7.668;2023-03-04T03:56:59;101699.78;;;11.55;41.60
29383;BME280;16365;51.598;7.668;2023-03-04T03:59:26;101699.78;;;11.55;42.06
29383;BME280;16365;51.598;7.668;2023-03-04T04:01:52;101703.69;;;11.54;42.00
29383;BME280;16365;51.598;7.668;2023-03-04T04:04:19;101703.69;;;11.54;41.83
29383;BME280;16365;51.598;7.668;2023-03-04T04:06:46;101699.28;;;11.53;42.43
29383;BME280;16365;51.598;7.668;2023-03-04T04:09:12;101699.28;;;11.53;42.42
29383;BME280;16365;51.598;7.668;2023-03-04T04:11:39;101700.09;;;11.53;42.14
29383;BME280;16365;51.598;7.668;2023-03-04T04:14:05;101694.53;;;11.53;41.93
29383;BME280;16365;51.598;7.668;2023-03-04T04:16:32;101701.72;;;11.54;41.75
29383;BME280;16365;51.598;7.668;2023-03-04T04:18:58;101685.88;;;11.55;42.20
29383;BME280;16365;51.598;7.668;2023-03-04T04:21:25;101698.66;;;11.56;42.35
29383;BME280;16365;51.598;7.668;2023-03-04T04:23:51;101692.56;;;11.54;41.90
29383;BME280;16365;51.598;7.668;2023-03-04T04:26:17;101687.56;;;11.56;42.41
29383;BME280;16365;51.598;7.668;2023-03-04T04:28:44;101687.56;;;11.56;42.43
29383;BME280;16365;51.598;7.668;2023-03-04T04:31:11;101691.16;;;11.56;42.05
29383;BME280;16365;51.598;7.668;2023-03-04T04:33:37;101691.16;;;11.56;42.28
29383;BME280;16365;51.598;7.668;2023-03-04T04:36:04;101693.94;;;11.56;41.71
29383;BME280;16365;51.598;7.668;2023-03-04T04:38:31;101698.34;;;11.57;42.22
29383;BME280;16365;51.598;7.668;2023-03-04T04:40:57;101694.44;;;11.58;42.02
29383;BME280;16365;51.598;7.668;2023-03-04T04:43:25;101697.19;;;11.58;41.93
29383;BME280;16365;51.598;7.668;2023-03-04T04:45:51;101692.47;;;11.59;41.82
29383;BME280;16365;51.598;7.668;2023-03-04T04:48:18;101690.81;;;11.58;42.28
29383;BME280;16365;51.598;7.668;2023-03-04T04:50:44;101695.25;;;11.59;42.26
29383;BME280;16365;51.598;7.668;2023-03-04T04:53:12;101704.41;;;11.59;42.35
29383;BME280;16365;51.598;7.668;2023-03-04T04:55:39;101697.53;;;11.57;42.15
29383;BME280;16365;51.598;7.668;2023-03-04T04:58:06;101699.47;;;11.56;42.39
29383;BME280;16365;51.598;7.668;2023-03-04T05:00:33;101700.31;;;11.57;42.59
29383;BME280;16365;51.598;7.668;2023-03-04T05:02:59;101697.00;;;11.55;42.07
29383;BME280;16365;51.598;7.668;2023-03-04T05:05:25;101701.44;;;11.56;42.37
29383;BME280;16365;51.598;7.668;2023-03-04T05:07:52;101694.22;;;11.55;42.05
29383;BME280;16365;51.598;7.668;2023-03-04T05:10:19;101701.72;;;11.54;42.29
29383;BME280;16365;51.598;7.668;2023-03-04T05:12:45;101697.31;;;11.53;42.13
29383;BME280;16365;51.598;7.668;2023-03-04T05:15:12;101696.50;;;11.53;42.27
29383;BME280;16365;51.598;7.668;2023-03-04T05:17:38;101693.22;;;11.51;42.49
29383;BME280;16365;51.598;7.668;2023-03-04T05:20:06;101705.97;;;11.52;42.25
29383;BME280;16365;51.598;7.668;2023-03-04T05:22:32;101700.69;;;11.50;42.30
29383;BME280;16365;51.598;7.668;2023-03-04T05:24:59;101692.91;;;11.52;42.26
29383;BME280;16365;51.598;7.668;2023-03-04T05:27:25;101702.06;;;11.53;42.37
29383;BME280;16365;51.598;7.668;2023-03-04T05:29:51;101697.31;;;11.53;42.16
29383;BME280;16365;51.598;7.668;2023-03-04T05:32:19;101696.16;;;11.54;42.22
29383;BME280;16365;51.598;7.668;2023-03-04T05:34:46;101698.94;;;11.54;42.29
29383;BME280;16365;51.598;7.668;2023-03-04T05:37:12;101686.22;;;11.53;42.34
29383;BME280;16365;51.598;7.668;2023-03-04T05:39:38;101696.50;;;11.53;42.34
29383;BME280;16365;51.598;7.668;2023-03-04T05:42:05;101694.84;;;11.52;42.14
29383;BME280;16365;51.598;7.668;2023-03-04T05:44:31;101696.00;;;11.51;42.56
29383;BME280;16365;51.598;7.668;2023-03-04T05:46:58;101694.84;;;11.52;42.51
29383;BME280;16365;51.598;7.668;2023-03-04T05:49:24;101689.31;;;11.52;41.98
29383;BME280;16365;51.598;7.668;2023-03-04T05:51:51;101694.84;;;11.52;42.36
29383;BME280;16365;51.598;7.668;2023-03-04T05:54:17;101695.16;;;11.50;42.44
29383;BME280;16365;51.598;7.668;2023-03-04T05:56:44;101697.91;;;11.50;42.29
29383;BME280;16365;51.598;7.668;2023-03-04T05:59:10;101695.16;;;11.50;42.03
29383;BME280;16365;51.598;7.668;2023-03-04T06:01:37;101691.53;;;11.50;42.56
29383;BME280;16365;51.598;7.668;2023-03-04T06:04:03;101697.63;;;11.52;42.55
29383;BME280;16365;51.598;7.668;2023-03-04T06:06:30;101698.78;;;11.51;42.28
29383;BME280;16365;51.598;7.668;2023-03-04T06:08:56;101705.97;;;11.52;42.48
29383;BME280;16365;51.598;7.668;2023-03-04T06:11:24;101695.16;;;11.50;42.52
29383;BME280;16365;51.598;7.668;2023-03-04T06:13:51;101708.75;;;11.52;42.30
29383;BME280;16365;51.598;7.668;2023-03-04T06:16:17;101704.31;;;11.51;42.44
29383;BME280;16365;51.598;7.668;2023-03-04T06:18:44;101715.44;;;11.51;42.49
29383;BME280;16365;51.598;7.668;2023-03-04T06:21:10;101714.91;;;11.49;42.58
29383;BME280;16365;51.598;7.668;2023-03-04T06:23:37;101708.53;;;11.48;42.52
29383;BME280;16365;51.598;7.668;2023-03-04T06:26:03;101719.97;;;11.47;42.92
29383;BME280;16365;51.598;7.668;2023-03-04T06:28:34;101716.66;;;11.45;42.55
29383;BME280;16365;51.598;7.668;2023-03-04T06:31:00;101724.97;;;11.45;42.44
29383;BME280;16365;51.598;7.668;2023-03-04T06:33:27;101721.69;;;11.43;42.67
29383;BME280;16365;51.598;7.668;2023-03-04T06:35:55;101718.41;;;11.41;42.79
29383;BME280;16365;51.598;7.668;2023-03-04T06:38:22;101716.75;;;11.40;42.52
29383;BME280;16365;51.598;7.668;2023-03-04T06:40:49;101718.72;;;11.39;42.66
29383;BME280;16365;51.598;7.668;2023-03-04T06:43:15;101724.59;;;11.38;43.08
29383;BME280;16365;51.598;7.668;2023-03-04T06:45:42;101728.50;;;11.37;42.87
29383;BME280;16365;51.598;7.668;2023-03-04T06:48:08;101728.78;;;11.35;42.80
29383;BME280;16365;51.598;7.668;2023-03-04T06:50:34;101727.16;;;11.34;43.24
29383;BME280;16365;51.598;7.668;2023-03-04T06:53:01;101723.22;;;11.35;43.21
29383;BME280;16365;51.598;7.668;2023-03-04T06:55:28;101724.38;;;11.34;43.05
29383;BME280;16365;51.598;7.668;2023-03-04T06:57:54;101735.97;;;11.36;43.09
29383;BME280;16365;51.598;7.668;2023-03-04T07:00:20;101736.81;;;11.37;42.90
29383;BME280;16365;51.598;7.668;2023-03-04T07:02:49;101730.97;;;11.38;43.35
29383;BME280;16365;51.598;7.668;2023-03-04T07:05:15;101744.72;;;11.43;43.12
29383;BME280;16365;51.598;7.668;2023-03-04T07:07:42;101742.28;;;11.42;43.04
29383;BME280;16365;51.598;7.668;2023-03-04T07:10:09;101735.06;;;11.41;43.19
29383;BME280;16365;51.598;7.668;2023-03-04T07:12:35;101737.53;;;11.42;43.61
29383;BME280;16365;51.598;7.668;2023-03-04T07:15:02;101739.50;;;11.42;43.40
29383;BME280;16365;51.598;7.668;2023-03-04T07:17:28;101743.91;;;11.43;43.61
29383;BME280;16365;51.598;7.668;2023-03-04T07:19:55;101737.72;;;11.46;43.49
29383;BME280;16365;51.598;7.668;2023-03-04T07:22:21;101740.50;;;11.46;43.90
29383;BME280;16365;51.598;7.668;2023-03-04T07:24:48;101737.13;;;11.49;43.52
29383;BME280;16365;51.598;7.668;2023-03-04T07:27:14;101745.44;;;11.49;43.59
29383;BME280;16365;51.598;7.668;2023-03-04T07:29:41;101736.81;;;11.50;43.74
29383;BME280;16365;51.598;7.668;2023-03-04T07:32:08;101751.81;;;11.49;43.82
29383;BME280;16365;51.598;7.668;2023-03-04T07:34:35;101744.84;;;11.52;44.03
29383;BME280;16365;51.598;7.668;2023-03-04T07:37:02;101748.44;;;11.52;44.29
29383;BME280;16365;51.598;7.668;2023-03-04T07:39:29;101744.53;;;11.53;43.58
29383;BME280;16365;51.598;7.668;2023-03-04T07:41:56;101746.47;;;11.53;43.84
29383;BME280;16365;51.598;7.668;2023-03-04T07:44:22;101745.66;;;11.52;43.98
29383;BME280;16365;51.598;7.668;2023-03-04T07:46:49;101757.59;;;11.53;43.70
29383;BME280;16365;51.598;7.668;2023-03-04T07:49:15;101747.31;;;11.53;44.07
29383;BME280;16365;51.598;7.668;2023-03-04T07:51:41;101755.31;;;11.55;44.23
29383;BME280;16365;51.598;7.668;2023-03-04T07:54:08;101750.59;;;11.55;44.44
29383;BME280;16365;51.598;7.668;2023-03-04T07:56:35;101752.25;;;11.56;43.89
29383;BME280;16365;51.598;7.668;2023-03-04T07:59:01;101737.22;;;11.57;44.11
29383;BME280;16365;51.598;7.668;2023-03-04T08:01:32;101742.47;;;11.59;44.30
29383;BME280;16365;51.598;7.668;2023-03-04T08:03:59;101746.59;;;11.62;44.19
29383;BME280;16365;51.598;7.668;2023-03-04T08:06:27;101747.91;;;11.64;44.32
29383;BME280;16365;51.598;7.668;2023-03-04T08:08:59;101748.44;;;11.66;44.71
29383;BME280;16365;51.598;7.668;2023-03-04T08:11:28;101740.28;;;11.70;44.59
29383;BME280;16365;51.598;7.668;2023-03-04T08:13:55;101739.69;;;11.73;44.54
29383;BME280;16365;51.598;7.668;2023-03-04T08:16:23;101736.56;;;11.74;44.47
29383;BME280;16365;51.598;7.668;2023-03-04T08:18:59;101743.81;;;11.75;44.38
29383;BME280;16365;51.598;7.668;2023-03-04T08:21:27;101736.47;;;11.79;44.20
29383;BME280;16365;51.598;7.668;2023-03-04T08:23:53;101734.53;;;11.80;44.68
29383;BME280;16365;51.598;7.668;2023-03-04T08:26:24;101739.78;;;11.81;44.78
29383;BME280;16365;51.598;7.668;2023-03-04T08:28:51;101739.19;;;11.85;44.39
29383;BME280;16365;51.598;7.668;2023-03-04T08:31:18;101734.94;;;11.87;44.66
29383;BME280;16365;51.598;7.668;2023-03-04T08:33:45;101734.84;;;11.92;44.65
29383;BME280;16365;51.598;7.668;2023-03-04T08:36:13;101735.38;;;11.94;44.47
29383;BME280;16365;51.598;7.668;2023-03-04T08:38:40;101729.97;;;11.98;45.05
29383;BME280;16365;51.598;7.668;2023-03-04T08:41:07;101721.84;;;12.01;44.09
29383;BME280;16365;51.598;7.668;2023-03-04T08:43:34;101724.84;;;12.05;44.16
29383;BME280;16365;51.598;7.668;2023-03-04T08:46:01;101726.16;;;12.07;44.54
29383;BME280;16365;51.598;7.668;2023-03-04T08:48:27;101732.72;;;12.12;44.31
29383;BME280;16365;51.598;7.668;2023-03-04T08:50:54;101730.47;;;12.14;44.22
29383;BME280;16365;51.598;7.668;2023-03-04T08:53:20;101737.34;;;12.16;44.64
29383;BME280;16365;51.598;7.668;2023-03-04T08:55:48;101731.47;;;12.18;44.40
29383;BME280;16365;51.598;7.668;2023-03-04T08:58:15;101736.72;;;12.19;44.53
29383;BME280;16365;51.598;7.668;2023-03-04T09:00:44;101732.19;;;12.23;43.83
29383;BME280;16365;51.598;7.668;2023-03-04T09:03:14;101735.28;;;12.22;44.20
29383;BME280;16365;51.598;7.668;2023-03-04T09:05:41;101738.88;;;12.22;44.28
29383;BME280;16365;51.598;7.668;2023-03-04T09:08:07;101738.06;;;12.22;44.00
29383;BME280;16365;51.598;7.668;2023-03-04T09:10:34;101734.78;;;12.20;44.28
29383;BME280;16365;51.598;7.668;2023-03-04T09:13:00;101743.41;;;12.18;44.65
29383;BME280;16365;51.598;7.668;2023-03-04T09:15:27;101730.97;;;12.16;44.35
29383;BME280;16365;51.598;7.668;2023-03-04T09:17:54;101727.38;;;12.15;44.58
29383;BME280;16365;51.598;7.668;2023-03-04T09:20:20;101733.75;;;12.16;44.74
29383;BME280;16365;51.598;7.668;2023-03-04T09:22:48;101737.34;;;12.16;44.82
29383;BME280;16365;51.598;7.668;2023-03-04T09:25:15;101734.25;;;12.18;45.42
29383;BME280;16365;51.598;7.668;2023-03-04T09:27:41;101730.03;;;12.20;44.99
29383;BME280;16365;51.598;7.668;2023-03-04T09:30:08;101729.72;;;12.22;44.79
29383;BME280;16365;51.598;7.668;2023-03-04T09:32:35;101731.06;;;12.24;44.99
29383;BME280;16365;51.598;7.668;2023-03-04T09:35:02;101721.56;;;12.25;44.70
29383;BME280;16365;51.598;7.668;2023-03-04T09:37:29;101729.59;;;12.27;45.74
29383;BME280;16365;51.598;7.668;2023-03-04T09:39:55;101723.41;;;12.30;45.25
29383;BME280;16365;51.598;7.668;2023-03-04T09:42:43;101722.25;;;12.31;45.97
29383;BME280;16365;51.598;7.668;2023-03-04T09:45:18;101727.69;;;12.36;45.91
29383;BME280;16365;51.598;7.668;2023-03-04T09:47:47;101725.13;;;12.40;45.74
29383;BME280;16365;51.598;7.668;2023-03-04T09:50:14;101720.06;;;12.42;45.43
29383;BME280;16365;51.598;7.668;2023-03-04T09:55:28;101722.53;;;12.43;45.76
29383;BME280;16365;51.598;7.668;2023-03-04T09:58:20;101722.00;;;12.41;46.23
29383;BME280;16365;51.598;7.668;2023-03-04T10:01:07;101723.66;;;12.42;45.86
29383;BME280;16365;51.598;7.668;2023-03-04T10:03:42;101724.50;;;12.43;45.89
29383;BME280;16365;51.598;7.668;2023-03-04T10:06:16;101716.97;;;12.43;45.95
29383;BME280;16365;51.598;7.668;2023-03-04T10:08:59;101716.16;;;12.43;45.81
29383;BME280;16365;51.598;7.668;2023-03-04T10:11:45;101713.88;;;12.45;46.09
29383;BME280;16365;51.598;7.668;2023-03-04T10:16:52;101710.63;;;12.51;45.55
29383;BME280;16365;51.598;7.668;2023-03-04T10:19:31;101710.34;;;12.53;46.02
29383;BME280;16365;51.598;7.668;2023-03-04T10:24:46;101707.09;;;12.59;45.85
29383;BME280;16365;51.598;7.668;2023-03-04T10:27:15;101706.28;;;12.59;45.81
29383;BME280;16365;51.598;7.668;2023-03-04T10:29:44;101701.19;;;12.61;46.29
29383;BME280;16365;51.598;7.668;2023-03-04T10:32:17;101708.44;;;12.62;45.91
29383;BME280;16365;51.598;7.668;2023-03-04T10:34:45;101703.38;;;12.64;45.86
29383;BME280;16365;51.598;7.668;2023-03-04T10:37:12;101700.25;;;12.66;45.79
29383;BME280;16365;51.598;7.668;2023-03-04T10:39:41;101708.31;;;12.67;45.99
29383;BME280;16365;51.598;7.668;2023-03-04T10:47:17;101694.25;;;12.72;45.98
29383;BME280;16365;51.598;7.668;2023-03-04T10:49:55;101697.34;;;12.71;46.13
29383;BME280;16365;51.598;7.668;2023-03-04T10:54:57;101696.72;;;12.74;45.57
29383;BME280;16365;51.598;7.668;2023-03-04T10:57:32;101700.94;;;12.71;46.54
29383;BME280;16365;51.598;7.668;2023-03-04T11:02:35;101703.91;;;12.75;46.41
29383;BME280;16365;51.598;7.668;2023-03-04T11:05:16;101697.03;;;12.72;47.39
29383;BME280;16365;51.598;7.668;2023-03-04T11:07:58;101700.63;;;12.73;47.23
29383;BME280;16365;51.598;7.668;2023-03-04T11:10:30;101691.97;;;12.74;46.69
29383;BME280;16365;51.598;7.668;2023-03-04T11:13:23;101687.88;;;12.72;47.17
29383;BME280;16365;51.598;7.668;2023-03-04T11:15:58;101683.94;;;12.73;47.00
29383;BME280;16365;51.598;7.668;2023-03-04T11:21:02;101688.56;;;12.77;46.69
29383;BME280;16365;51.598;7.668;2023-03-04T11:23:46;101685.78;;;12.77;47.36
29383;BME280;16365;51.598;7.668;2023-03-04T11:26:18;101680.06;;;12.82;46.83
29383;BME280;16365;51.598;7.668;2023-03-04T11:31:37;101675.84;;;12.94;47.87
29383;BME280;16365;51.598;7.668;2023-03-04T11:34:33;101679.31;;;12.99;47.87
29383;BME280;16365;51.598;7.668;2023-03-04T11:37:05;101662.16;;;13.06;46.32
29383;BME280;16365;51.598;7.668;2023-03-04T11:39:40;101659.88;;;13.08;46.84
29383;BME280;16365;51.598;7.668;2023-03-04T11:42:32;101664.28;;;13.09;47.34
29383;BME280;16365;51.598;7.668;2023-03-04T11:45:01;101656.13;;;13.12;45.87
29383;BME280;16365;51.598;7.668;2023-03-04T11:50:23;101649.56;;;13.08;47.93
29383;BME280;16365;51.598;7.668;2023-03-04T12:01:14;101640.72;;;13.06;46.98
29383;BME280;16365;51.598;7.668;2023-03-04T12:04:10;101650.03;;;13.02;47.78
29383;BME280;16365;51.598;7.668;2023-03-04T12:07:05;101643.66;;;13.01;47.82
29383;BME280;16365;51.598;7.668;2023-03-04T12:15:54;101632.81;;;12.91;48.12
29383;BME280;16365;51.598;7.668;2023-03-04T12:24:02;101616.41;;;12.90;48.68
29383;BME280;16365;51.598;7.668;2023-03-04T12:26:44;101611.03;;;12.93;48.85
29383;BME280;16365;51.598;7.668;2023-03-04T12:31:45;101609.41;;;13.01;48.31
29383;BME280;16365;51.598;7.668;2023-03-04T12:34:29;101598.28;;;13.01;48.19
29383;BME280;16365;51.598;7.668;2023-03-04T12:37:18;101598.44;;;13.04;48.12
29383;BME280;16365;51.598;7.668;2023-03-04T12:40:04;101592.22;;;13.07;47.83
29383;BME280;16365;51.598;7.668;2023-03-04T12:45:39;101591.28;;;13.12;47.25
29383;BME280;16365;51.598;7.668;2023-03-04T12:48:38;101592.09;;;13.12;48.13
29383;BME280;16365;51.598;7.668;2023-03-04T12:51:20;101585.69;;;13.12;47.76
29383;BME280;16365;51.598;7.668;2023-03-04T12:57:13;101581.28;;;13.11;47.69
29383;BME280;16365;51.598;7.668;2023-03-04T13:02:34;101577.69;;;13.10;47.07
29383;BME280;16365;51.598;7.668;2023-03-04T13:05:33;101575.19;;;13.09;47.55
29383;BME280;16365;51.598;7.668;2023-03-04T13:08:33;101573.91;;;13.06;48.05
29383;BME280;16365;51.598;7.668;2023-03-04T13:14:07;101572.09;;;13.02;47.21
29383;BME280;16365;51.598;7.668;2023-03-04T13:16:52;101570.44;;;13.01;47.21
29383;BME280;16365;51.598;7.668;2023-03-04T13:24:53;101572.53;;;12.95;47.24
29383;BME280;16365;51.598;7.668;2023-03-04T13:27:42;101570.72;;;12.91;47.84
29383;BME280;16365;51.598;7.668;2023-03-04T13:43:43;101550.13;;;13.09;48.25
29383;BME280;16365;51.598;7.668;2023-03-04T13:51:24;101561.31;;;13.18;46.95
29383;BME280;16365;51.598;7.668;2023-03-04T13:56:38;101552.31;;;13.21;47.47
29383;BME280;16365;51.598;7.668;2023-03-04T14:04:16;101539.50;;;13.20;46.60
29383;BME280;16365;51.598;7.668;2023-03-04T14:06:45;101537.25;;;13.22;46.36
29383;BME280;16365;51.598;7.668;2023-03-04T14:09:23;101542.00;;;13.21;46.48
29383;BME280;16365;51.598;7.668;2023-03-04T14:11:51;101534.47;;;13.22;46.23
29383;BME280;16365;51.598;7.668;2023-03-04T14:14:21;101536.94;;;13.23;46.06
29383;BME280;16365;51.598;7.668;2023-03-04T14:16:56;101534.16;;;13.23;46.72
29383;BME280;16365;51.598;7.668;2023-03-04T14:19:31;101524.00;;;13.27;45.95
29383;BME280;16365;51.598;7.668;2023-03-04T14:21:59;101513.84;;;13.31;46.14
29383;BME280;16365;51.598;7.668;2023-03-04T14:24:26;101512.88;;;13.36;46.59
29383;BME280;16365;51.598;7.668;2023-03-04T14:27:09;101518.09;;;13.37;46.25
29383;BME280;16365;51.598;7.668;2023-03-04T14:29:36;101510.41;;;13.43;46.10
29383;BME280;16365;51.598;7.668;2023-03-04T14:32:04;101508.94;;;13.46;45.90
29383;BME280;16365;51.598;7.668;2023-03-04T14:34:34;101513.53;;;13.50;45.99
29383;BME280;16365;51.598;7.668;2023-03-04T14:37:03;101513.69;;;13.54;45.52